createdAt,value
2023-04-14T00:01:22.591Z,2.10
2023-04-14T00:04:25.557Z,3.03
2023-04-14T00:07:28.286Z,1.88
2023-04-14T00:10:30.804Z,1.80
2023-04-14T00:13:34.720Z,1.80
2023-04-14T00:16:39.421Z,2.17
2023-04-14T00:19:41.961Z,1.70
2023-04-14T00:22:44.521Z,2.30
2023-04-14T00:25:47.146Z,2.17
2023-04-14T00:28:51.172Z,2.10
2023-04-14T00:31:53.848Z,2.13
2023-04-14T00:34:57.058Z,1.70
2023-04-14T00:37:59.544Z,1.90
2023-04-14T00:41:02.211Z,1.77
2023-04-14T00:44:06.530Z,1.53
2023-04-14T00:47:09.080Z,1.97
2023-04-14T00:50:12.040Z,1.73
2023-04-14T00:53:15.364Z,2.35
2023-04-14T00:56:18.605Z,2.03
2023-04-14T00:59:22.696Z,2.35
2023-04-14T01:02:26.301Z,1.90
2023-04-14T01:08:31.984Z,2.03
2023-04-14T01:11:39.786Z,1.90
2023-04-14T01:14:48.359Z,1.90
2023-04-14T01:17:58.650Z,1.90
2023-04-14T01:21:05.403Z,2.20
2023-04-14T01:24:31.767Z,2.43
2023-04-14T01:27:40.662Z,2.30
2023-04-14T01:30:58.241Z,1.90
2023-04-14T01:34:06.859Z,3.67
2023-04-14T01:37:15.412Z,2.60
2023-04-14T01:40:19.734Z,2.07
2023-04-14T01:43:26.535Z,2.37
2023-04-14T01:46:29.179Z,2.60
2023-04-14T01:49:34.277Z,2.90
2023-04-14T01:52:37.449Z,2.83
2023-04-14T01:55:42.266Z,2.47
2023-04-14T01:58:46.670Z,2.70
2023-04-14T02:01:50.430Z,2.67
2023-04-14T02:07:58.143Z,2.53
2023-04-14T02:11:02.051Z,2.40
2023-04-14T02:14:05.311Z,3.13
2023-04-14T02:17:08.779Z,2.60
2023-04-14T02:20:14.815Z,2.22
2023-04-14T02:23:17.344Z,2.47
2023-04-14T02:26:22.783Z,2.03
2023-04-14T02:29:26.312Z,2.80
2023-04-14T02:32:31.041Z,2.47
2023-04-14T02:35:39.908Z,2.40
2023-04-14T02:38:47.131Z,2.17
2023-04-14T02:41:54.568Z,3.20
2023-04-14T02:45:01.469Z,2.17
2023-04-14T02:48:09.652Z,2.10
2023-04-14T02:51:14.614Z,2.03
2023-04-14T02:54:19.282Z,2.27
2023-04-14T02:57:23.138Z,2.03
2023-04-14T03:03:29.363Z,3.03
2023-04-14T03:06:33.426Z,2.15
2023-04-14T03:09:36.385Z,2.37
2023-04-14T03:12:39.146Z,2.17
2023-04-14T03:15:42.871Z,2.03
2023-04-14T03:18:46.400Z,2.03
2023-04-14T03:21:51.032Z,2.25
2023-04-14T03:24:58.074Z,2.50
2023-04-14T03:28:02.736Z,2.27
2023-04-14T03:31:06.339Z,2.93
2023-04-14T03:34:09.874Z,2.22
2023-04-14T03:37:16.302Z,2.00
2023-04-14T03:40:18.932Z,2.10
2023-04-14T03:43:22.762Z,2.23
2023-04-14T03:46:28.425Z,2.27
2023-04-14T03:49:33.286Z,2.47
2023-04-14T03:52:39.233Z,2.97
2023-04-14T03:55:43.850Z,2.90
2023-04-14T03:58:49.271Z,2.40
2023-04-14T04:01:52.212Z,2.53
2023-04-14T04:04:56.814Z,2.60
2023-04-14T04:08:03.046Z,2.35
2023-04-14T04:11:07.088Z,2.17
2023-04-14T04:14:10.738Z,2.27
2023-04-14T04:17:15.404Z,2.45
2023-04-14T04:20:18.209Z,2.33
2023-04-14T04:23:22.765Z,2.33
2023-04-14T04:26:25.782Z,2.43
2023-04-14T04:29:28.575Z,2.38
2023-04-14T04:32:31.819Z,2.08
2023-04-14T04:35:35.827Z,2.20
2023-04-14T04:38:39.791Z,2.70
2023-04-14T04:41:42.448Z,2.90
2023-04-14T04:44:45.022Z,2.60
2023-04-14T04:47:47.596Z,4.83
2023-04-14T04:50:50.392Z,3.20
2023-04-14T04:53:54.391Z,3.17
2023-04-14T04:56:57.553Z,2.60
2023-04-14T05:00:00.643Z,3.13
2023-04-14T05:03:03.458Z,2.95
2023-04-14T05:06:06.988Z,3.17
2023-04-14T05:09:10.992Z,3.00
2023-04-14T05:12:13.775Z,3.30
2023-04-14T05:15:16.671Z,2.93
2023-04-14T05:18:19.523Z,3.03
2023-04-14T05:21:22.404Z,3.60
2023-04-14T05:24:27.331Z,3.72
2023-04-14T05:27:30.070Z,4.10
2023-04-14T05:30:32.721Z,3.83
2023-04-14T05:33:36.378Z,2.90
2023-04-14T05:36:39.391Z,4.45
2023-04-14T05:39:43.521Z,2.78
2023-04-14T05:42:46.056Z,2.90
2023-04-14T05:45:48.728Z,2.80
2023-04-14T05:48:51.472Z,3.00
2023-04-14T05:51:56.008Z,2.73
2023-04-14T05:55:00.007Z,3.27
2023-04-14T05:58:02.750Z,3.00
2023-04-14T06:01:06.343Z,3.03
2023-04-14T06:04:09.493Z,2.80
2023-04-14T06:07:12.460Z,2.80
2023-04-14T06:10:16.426Z,2.90
2023-04-14T06:13:22.796Z,3.37
2023-04-14T06:16:25.771Z,3.17
2023-04-14T06:19:28.492Z,3.08
2023-04-14T06:22:31.332Z,3.80
2023-04-14T06:25:35.246Z,3.33
2023-04-14T06:28:37.786Z,3.40
2023-04-14T06:31:40.537Z,2.60
2023-04-14T06:34:43.085Z,3.30
2023-04-14T06:37:45.865Z,3.63
2023-04-14T06:40:51.917Z,3.25
2023-04-14T06:43:55.846Z,2.70
2023-04-14T06:46:59.166Z,3.03
2023-04-14T06:50:03.253Z,2.50
2023-04-14T06:53:07.108Z,3.77
2023-04-14T06:56:11.159Z,2.90
2023-04-14T06:59:14.078Z,3.33
2023-04-14T07:02:16.644Z,3.90
2023-04-14T07:05:19.777Z,3.40
2023-04-14T07:08:22.835Z,2.50
2023-04-14T07:11:26.922Z,2.63
2023-04-14T07:14:29.558Z,2.77
2023-04-14T07:17:32.664Z,2.73
2023-04-14T07:20:35.299Z,2.15
2023-04-14T07:23:37.894Z,2.70
2023-04-14T07:26:42.894Z,2.70
2023-04-14T07:29:45.447Z,2.37
2023-04-14T07:32:48.331Z,1.90
2023-04-14T07:36:01.893Z,1.95
2023-04-14T07:39:05.302Z,1.93
2023-04-14T07:42:09.192Z,2.83
2023-04-14T07:45:12.025Z,3.20
2023-04-14T07:48:14.618Z,2.78
2023-04-14T07:51:17.355Z,2.90
2023-04-14T07:54:20.139Z,2.50
2023-04-14T07:57:24.042Z,2.42
2023-04-14T08:00:27.107Z,2.67
2023-04-14T08:03:29.869Z,2.78
2023-04-14T08:06:32.916Z,2.38
2023-04-14T08:09:35.781Z,3.28
2023-04-14T08:12:39.914Z,2.70
2023-04-14T08:15:42.569Z,2.93
2023-04-14T08:18:45.260Z,3.83
2023-04-14T08:21:47.842Z,3.00
2023-04-14T08:24:50.624Z,2.40
2023-04-14T08:27:54.608Z,2.45
2023-04-14T08:30:57.369Z,2.17
2023-04-14T08:34:00.437Z,2.28
2023-04-14T08:37:03.146Z,2.70
2023-04-14T08:40:07.740Z,2.92
2023-04-14T08:43:14.576Z,2.60
2023-04-14T08:46:19.339Z,2.40
2023-04-14T08:49:29.890Z,2.00
2023-04-14T08:52:34.335Z,1.93
2023-04-14T08:55:38.092Z,2.00
2023-04-14T08:58:43.181Z,2.20
2023-04-14T09:01:46.758Z,1.30
2023-04-14T09:07:53.318Z,1.27
2023-04-14T09:10:56.051Z,1.10
2023-04-14T09:14:01.835Z,1.52
2023-04-14T09:17:04.708Z,1.60
2023-04-14T09:20:35.295Z,1.20
2023-04-14T09:26:34.406Z,1.27
2023-04-14T09:29:39.037Z,1.15
2023-04-14T09:32:42.367Z,1.50
2023-04-14T09:35:47.447Z,0.90
2023-04-14T09:38:51.878Z,0.90
2023-04-14T09:41:54.623Z,1.20
2023-04-14T09:45:01.236Z,1.77
2023-04-14T09:48:07.659Z,1.30
2023-04-14T09:51:10.578Z,1.40
2023-04-14T09:54:13.238Z,1.45
2023-04-14T09:57:25.808Z,1.57
2023-04-14T10:00:32.906Z,1.03
2023-04-14T10:03:37.913Z,1.87
2023-04-14T10:06:41.849Z,1.30
2023-04-14T10:09:49.158Z,1.50
2023-04-14T10:12:53.962Z,1.43
2023-04-14T10:15:58.194Z,1.90
2023-04-14T10:19:02.266Z,1.30
2023-04-14T10:22:06.660Z,1.40
2023-04-14T10:25:10.752Z,1.00
2023-04-14T10:28:14.062Z,2.27
2023-04-14T10:31:20.723Z,1.70
2023-04-14T10:34:24.362Z,1.33
2023-04-14T10:37:26.929Z,1.50
2023-04-14T10:40:46.528Z,1.40
2023-04-14T10:43:49.120Z,2.10
2023-04-14T10:46:56.330Z,2.30
2023-04-14T10:50:04.181Z,1.40
2023-04-14T10:53:09.368Z,1.20
2023-04-14T10:56:12.037Z,1.80
2023-04-14T10:59:17.380Z,1.77
2023-04-14T11:02:26.433Z,1.37
2023-04-14T11:05:29.188Z,1.43
2023-04-14T11:08:35.659Z,2.42
2023-04-14T11:11:38.172Z,1.53
2023-04-14T11:14:40.863Z,1.30
2023-04-14T11:17:45.434Z,0.90
2023-04-14T11:20:48.137Z,1.43
2023-04-14T11:23:50.735Z,1.42
2023-04-14T11:26:54.700Z,1.25
2023-04-14T11:29:57.639Z,1.50
2023-04-14T11:33:01.853Z,1.02
2023-04-14T11:36:06.373Z,1.17
2023-04-14T11:39:09.142Z,0.90
2023-04-14T11:42:11.985Z,0.80
2023-04-14T11:45:16.440Z,1.45
2023-04-14T11:48:21.756Z,1.23
2023-04-14T11:51:30.622Z,1.50
2023-04-14T11:54:36.486Z,1.13
2023-04-14T11:57:39.221Z,1.10
2023-04-14T12:00:42.897Z,1.55
2023-04-14T12:03:47.239Z,0.70
2023-04-14T12:06:49.981Z,1.00
2023-04-14T12:09:52.698Z,0.80
2023-04-14T12:13:00.806Z,1.42
2023-04-14T12:16:03.593Z,0.90
2023-04-14T12:19:07.629Z,0.90
2023-04-14T12:22:10.375Z,0.93
2023-04-14T12:25:13.720Z,1.38
2023-04-14T12:28:18.615Z,0.80
2023-04-14T12:31:28.507Z,1.07
2023-04-14T12:34:33.054Z,1.00
2023-04-14T12:37:35.840Z,0.70
2023-04-14T12:40:40.103Z,0.88
2023-04-14T12:43:42.742Z,0.90
2023-04-14T12:46:49.934Z,1.42
2023-04-14T12:49:54.848Z,1.30
2023-04-14T12:52:59.897Z,1.57
2023-04-14T12:56:10.276Z,1.00
2023-04-14T12:59:13.235Z,0.80
2023-04-14T13:02:15.883Z,0.82
2023-04-14T13:05:20.089Z,0.98
2023-04-14T13:08:23.526Z,0.83
2023-04-14T13:11:26.112Z,1.00
2023-04-14T13:14:28.632Z,0.93
2023-04-14T13:17:31.340Z,0.90
2023-04-14T13:20:35.320Z,1.20
2023-04-14T13:23:37.955Z,1.03
2023-04-14T13:26:40.999Z,0.80
2023-04-14T13:32:46.781Z,0.87
2023-04-14T13:35:51.451Z,0.90
2023-04-14T13:38:54.148Z,0.85
2023-04-14T13:41:57.595Z,0.82
2023-04-14T13:45:00.385Z,1.05
2023-04-14T13:48:03.300Z,0.93
2023-04-14T13:51:07.294Z,1.10
2023-04-14T13:54:10.081Z,1.10
2023-04-14T14:00:16.362Z,0.85
2023-04-14T14:03:19.293Z,1.00
2023-04-14T14:06:23.323Z,1.20
2023-04-14T14:09:26.105Z,1.23
2023-04-14T14:12:29.004Z,0.75
2023-04-14T14:18:34.165Z,0.88
2023-04-14T14:21:38.191Z,0.70
2023-04-14T14:24:41.514Z,1.17
2023-04-14T14:27:45.170Z,0.73
2023-04-14T14:30:47.900Z,0.80
2023-04-14T14:33:50.435Z,0.65
2023-04-14T14:36:55.351Z,1.13
2023-04-14T14:39:58.307Z,0.73
2023-04-14T14:43:01.016Z,1.25
2023-04-14T14:49:06.536Z,0.90
2023-04-14T14:55:13.059Z,1.08
2023-04-14T15:01:18.113Z,1.05
2023-04-14T15:04:21.817Z,1.00
2023-04-14T15:07:26.119Z,1.33
2023-04-14T15:10:28.731Z,1.00
2023-04-14T15:13:32.615Z,1.00
2023-04-14T15:16:35.251Z,0.80
2023-04-14T15:19:39.120Z,1.50
2023-04-14T15:22:43.147Z,0.90
2023-04-14T15:25:45.729Z,0.60
2023-04-14T15:28:48.333Z,0.70
2023-04-14T15:31:50.975Z,0.77
2023-04-14T15:34:55.142Z,1.23
2023-04-14T15:37:59.324Z,1.07
2023-04-14T15:41:01.942Z,1.13
2023-04-14T15:44:04.857Z,0.77
2023-04-14T15:47:07.441Z,0.60
2023-04-14T15:50:11.977Z,0.65
2023-04-14T15:53:17.414Z,0.60
2023-04-14T15:56:23.168Z,0.80
2023-04-14T15:59:26.524Z,1.53
2023-04-14T16:02:29.408Z,0.70
2023-04-14T16:05:32.103Z,0.70
2023-04-14T16:08:36.262Z,0.60
2023-04-14T16:11:39.181Z,0.97
2023-04-14T16:14:42.716Z,1.08
2023-04-14T16:17:45.589Z,0.87
2023-04-14T16:20:50.160Z,1.15
2023-04-14T16:23:54.263Z,1.50
2023-04-14T16:26:57.690Z,0.60
2023-04-14T16:30:00.492Z,1.33
2023-04-14T16:33:03.180Z,0.90
2023-04-14T16:36:07.832Z,1.30
2023-04-14T16:39:12.292Z,1.20
2023-04-14T16:42:18.598Z,0.73
2023-04-14T16:45:21.302Z,0.67
2023-04-14T16:48:23.921Z,0.60
2023-04-14T16:51:27.352Z,1.25
2023-04-14T16:54:31.780Z,0.93
2023-04-14T16:57:34.281Z,1.00
2023-04-14T17:00:37.316Z,0.55
2023-04-14T17:03:40.237Z,0.50
2023-04-14T17:06:42.971Z,0.63
2023-04-14T17:09:47.145Z,0.95
2023-04-14T17:12:49.725Z,1.43
2023-04-14T17:18:58.299Z,0.63
2023-04-14T17:22:00.900Z,1.23
2023-04-14T17:25:06.509Z,1.30
2023-04-14T17:28:09.524Z,1.03
2023-04-14T17:31:14.148Z,1.63
2023-04-14T17:34:19.208Z,1.10
2023-04-14T17:37:22.560Z,1.40
2023-04-14T17:40:27.523Z,1.55
2023-04-14T17:43:30.128Z,1.30
2023-04-14T17:46:34.545Z,1.52
2023-04-14T17:49:37.328Z,1.10
2023-04-14T17:52:40.467Z,1.63
2023-04-14T17:55:44.851Z,1.20
2023-04-14T17:58:48.047Z,1.10
2023-04-14T18:01:51.007Z,1.35
2023-04-14T18:04:53.706Z,1.67
2023-04-14T18:07:56.434Z,1.80
2023-04-14T18:11:00.754Z,1.40
2023-04-14T18:14:04.204Z,2.00
2023-04-14T18:17:07.423Z,1.40
2023-04-14T18:20:11.757Z,2.10
2023-04-14T18:23:14.552Z,2.10
2023-04-14T18:29:24.572Z,1.70
2023-04-14T18:32:29.801Z,2.25
2023-04-14T18:35:33.650Z,2.83
2023-04-14T18:38:36.352Z,2.30
2023-04-14T18:41:40.446Z,2.25
2023-04-14T18:44:43.065Z,2.50
2023-04-14T18:47:46.088Z,2.20
2023-04-14T18:50:49.245Z,2.20
2023-04-14T18:53:51.799Z,3.00
2023-04-14T18:56:55.727Z,3.00
2023-04-14T18:59:59.446Z,3.40
2023-04-14T19:03:04.492Z,3.63
2023-04-14T19:06:07.355Z,2.73
2023-04-14T19:09:10.098Z,3.00
2023-04-14T19:12:25.393Z,2.85
2023-04-14T19:15:30.467Z,2.43
2023-04-14T19:18:32.981Z,3.63
2023-04-14T19:21:35.693Z,2.70
2023-04-14T19:24:39.014Z,3.00
2023-04-14T19:27:43.421Z,3.55
2023-04-14T19:30:46.542Z,2.93
2023-04-14T19:33:49.348Z,3.45
2023-04-14T19:36:52.027Z,3.50
2023-04-14T19:39:54.546Z,2.53
2023-04-14T19:42:58.380Z,3.43
2023-04-14T19:46:04.622Z,2.60
2023-04-14T19:49:07.366Z,3.10
2023-04-14T19:52:09.922Z,2.97
2023-04-14T19:55:13.181Z,3.20
2023-04-14T19:58:18.740Z,3.55
2023-04-14T20:01:24.047Z,2.77
2023-04-14T20:04:27.216Z,3.73
2023-04-14T20:07:29.882Z,3.00
2023-04-14T20:10:32.700Z,2.50
2023-04-14T20:13:38.122Z,3.13
2023-04-14T20:16:40.713Z,2.90
2023-04-14T20:19:44.534Z,3.03
2023-04-14T20:25:50.635Z,2.60
2023-04-14T20:31:57.087Z,2.13
2023-04-14T20:35:00.105Z,2.67
2023-04-14T20:38:02.838Z,3.58
2023-04-14T20:41:05.756Z,3.43
2023-04-14T20:44:09.766Z,4.25
2023-04-14T20:47:12.311Z,3.67
2023-04-14T20:50:14.874Z,3.50
2023-04-14T20:53:17.915Z,2.57
2023-04-14T20:56:20.477Z,3.03
2023-04-14T20:59:24.428Z,2.60
2023-04-14T21:02:27.497Z,2.80
2023-04-14T21:05:30.214Z,2.25
2023-04-14T21:08:32.684Z,2.53
2023-04-14T21:11:35.254Z,1.67
2023-04-14T21:15:29.632Z,2.43
2023-04-14T21:18:02.419Z,2.78
2023-04-14T21:21:06.001Z,2.28
2023-04-14T21:24:09.230Z,2.50
2023-04-14T21:27:11.986Z,1.90
2023-04-14T21:30:17.497Z,1.93
2023-04-14T21:33:20.142Z,2.13
2023-04-14T21:36:22.954Z,1.80
2023-04-14T21:39:28.323Z,2.05
2023-04-14T21:42:30.939Z,2.60
2023-04-14T21:45:34.838Z,1.90
2023-04-14T21:48:37.451Z,1.80
2023-04-14T21:51:40.051Z,2.00
2023-04-14T21:54:44.310Z,2.10
2023-04-14T21:57:49.705Z,2.00
2023-04-14T22:00:54.007Z,2.07
2023-04-14T22:03:56.668Z,2.00
2023-04-14T22:06:59.448Z,2.10
2023-04-14T22:10:02.198Z,2.00
2023-04-14T22:13:04.732Z,1.90
2023-04-14T22:16:11.204Z,1.80
2023-04-14T22:19:14.253Z,1.77
2023-04-14T22:22:17.223Z,2.15
2023-04-14T22:25:20.409Z,3.28
2023-04-14T22:28:23.040Z,2.53
2023-04-14T22:31:27.787Z,2.43
2023-04-14T22:34:30.640Z,1.70
2023-04-14T22:37:33.262Z,2.17
2023-04-14T22:40:35.919Z,2.37
2023-04-14T22:43:38.434Z,2.00
2023-04-14T22:46:42.335Z,1.87
2023-04-14T22:49:44.834Z,2.33
2023-04-14T22:52:47.404Z,2.00
2023-04-14T22:55:50.065Z,2.57
2023-04-14T22:58:52.600Z,1.50
2023-04-14T23:01:56.975Z,2.13
2023-04-14T23:04:59.599Z,2.00
2023-04-14T23:08:02.201Z,2.13
2023-04-14T23:11:05.173Z,2.03
2023-04-14T23:14:07.627Z,1.98
2023-04-14T23:17:11.775Z,2.03
2023-04-14T23:20:14.402Z,2.40
2023-04-14T23:23:17.068Z,2.23
2023-04-14T23:26:22.721Z,1.90
2023-04-14T23:29:25.226Z,2.43
2023-04-14T23:32:29.265Z,2.40
2023-04-14T23:35:31.795Z,2.60
2023-04-14T23:38:34.402Z,3.07
2023-04-14T23:41:36.979Z,2.63
2023-04-14T23:44:39.517Z,2.23
2023-04-14T23:47:43.476Z,2.50
2023-04-14T23:51:00.375Z,2.80
2023-04-14T23:54:08.582Z,2.73
2023-04-14T23:57:11.305Z,2.83
